Birthe Bres — OXPX2 — position and weather

sailwx.info

Track history (hours):
 
Tides and Currents Weather Stations Pressure Air Temp Water Temp Dewpoint Dewpoint Depression Visibility Wind Speed Wind Dir Waves Ship Positions

Birthe Bres

Last reported at 2017-Oct-21 21:29 UTC. Time now 2017-Oct-22 13:26 UTC.
Position N 50°30' W 000°21'.

Length 88 m; draft 5.2 m.

Type: Cargo ship. MMSI: 220506000.

Date/timePositionNaut miles runAvg speedWind from/ knotsBaromVisibWave heightAir tempDewpointWater temp
2017-Oct-21 21:29N 50°30' W 000°21'0 0.9
2017-Oct-21 20:56N 50°30' W 000°20'0 0.8
2017-Oct-21 20:30N 50°30' W 000°20'1 1.1
2017-Oct-21 20:00N 50°30' W 000°19'1 1.7
2017-Oct-21 19:30N 50°30' W 000°18'1 2.4
2017-Oct-21 19:00N 50°30' W 000°16'1 2.7
2017-Oct-21 18:29N 50°30' W 000°14'2 3.1
2017-Oct-21 18:00N 50°30' W 000°11'2 3.9
2017-Oct-21 17:30N 50°31' W 000°09'2 4.5
2017-Oct-21 17:00N 50°32' W 000°05'2 4.6
2017-Oct-21 16:30N 50°32' W 000°02'2 4.9
2017-Oct-21 16:00N 50°33' E 000°02'2 4.7
2017-Oct-21 15:30N 50°34' E 000°05'3 5.2
2017-Oct-21 15:00N 50°34' E 000°09'2 4.6
2017-Oct-21 14:30N 50°35' E 000°13'5 4.7
2017-Oct-21 13:29N 50°36' E 000°20'2 4.3
2017-Oct-21 13:00N 50°37' E 000°23'2 4.0
2017-Oct-21 12:30N 50°37' E 000°26'2 3.3
2017-Oct-21 12:00N 50°38' E 000°29'2 2.7
2017-Oct-21 11:06N 50°39' E 000°33'0 2.5
2017-Oct-21 11:00N 50°39' E 000°33'1 2.3
2017-Oct-21 10:30N 50°39' E 000°35'1 2.1
2017-Oct-21 10:00N 50°40' E 000°36'1 1.4
2017-Oct-21 09:30N 50°40' E 000°37'1 1.5
2017-Oct-21 09:00N 50°40' E 000°38'1 2.0
2017-Oct-21 08:30N 50°41' E 000°39'1 2.5
2017-Oct-21 08:00N 50°41' E 000°41'1 2.9
2017-Oct-21 07:30N 50°42' E 000°43'2 4.4
2017-Oct-21 07:00N 50°44' E 000°46'3 5.5
2017-Oct-21 06:30N 50°45' E 000°49'3 6.5
2017-Oct-21 06:00N 50°47' E 000°54'4 7.2
2017-Oct-21 05:28N 50°49' E 000°58'13 7.4
2017-Oct-21 03:45N 50°58' E 001°14'2 7.2
2017-Oct-21 03:30N 50°59' E 001°16'4 7.1
2017-Oct-21 03:00N 51°01' E 001°21'4 6.8
2017-Oct-21 02:29N 51°03' E 001°25'3 6.4
2017-Oct-21 02:00N 51°05' E 001°29'3 6.0
2017-Oct-21 01:30N 51°07' E 001°32'3 5.5
2017-Oct-21 01:00N 51°09' E 001°35'3 5.9
2017-Oct-21 00:30N 51°11' E 001°39'3 6.5
2017-Oct-21 00:00N 51°13' E 001°43'3 6.8
2017-Oct-20 23:30N 51°15' E 001°47'4 7.5
2017-Oct-20 23:00N 51°18' E 001°50'5 9.0
2017-Oct-20 22:30N 51°22' E 001°54'510.3
2017-Oct-20 22:00N 51°26' E 001°59'611.1
2017-Oct-20 21:30N 51°31' E 002°05'611.4
2017-Oct-20 21:00N 51°35' E 002°10'611.3
2017-Oct-20 20:30N 51°39' E 002°17'51 5.1
2017-Oct-20 10:31N 52°19' E 003°08'1 4.9
2017-Oct-20 10:24N 52°19' E 003°09'2 5.4
2017-Oct-20 09:59N 52°21' E 003°11'3 5.4
2017-Oct-20 09:29N 52°23' E 003°14'2 4.7
2017-Oct-20 08:59N 52°25' E 003°16'3 6.2
2017-Oct-20 08:29N 52°28' E 003°19'3 6.2
2017-Oct-20 07:58N 52°30' E 003°22'3 6.8
2017-Oct-20 07:30N 52°33' E 003°25'4 6.9
2017-Oct-20 06:59N 52°35' E 003°29'4 8.5
2017-Oct-20 06:28N 52°39' E 003°34'4 8.3
2017-Oct-20 06:00N 52°42' E 003°38'4 8.1
2017-Oct-20 05:30N 52°45' E 003°42'33910.2
2017-Oct-18 20:23N 57°25' E 009°16'2610.6
2017-Oct-18 17:53N 57°39' E 009°58'410.6
2017-Oct-18 17:30N 57°40' E 010°05'510.9
2017-Oct-18 17:00N 57°42' E 010°14'610.8
2017-Oct-18 16:29N 57°44' E 010°23'510.1
2017-Oct-18 16:00N 57°46' E 010°32'510.2
2017-Oct-18 15:30N 57°48' E 010°41'5 9.8
2017-Oct-18 15:00N 57°48' E 010°50'1010.4
2017-Oct-18 14:00N 57°43' E 011°08'510.6
2017-Oct-18 13:30N 57°41' E 011°17'510.7
2017-Oct-18 13:00N 57°39' E 011°26'611.0
2017-Oct-18 12:30N 57°37' E 011°36'5 9.7
2017-Oct-18 12:00N 57°39' E 011°44'2 4.1
2017-Oct-18 11:30N 57°40' E 011°47'0 0.0
2017-Oct-18 11:00N 57°40' E 011°47'0 0.0
2017-Oct-18 10:27N 57°40' E 011°47'0 0.3
2017-Oct-18 10:00N 57°40' E 011°47'3 7.2
2017-Oct-18 09:30N 57°41' E 011°53'4 7.4
2017-Oct-18 09:00N 57°43' E 011°59'2 3.4
2017-Oct-18 08:30N 57°45' E 012°00'3 6.2
2017-Oct-18 08:00N 57°48' E 012°01'3 6.8
2017-Oct-18 07:30N 57°51' E 012°01'5 9.8
2017-Oct-18 07:00N 57°56' E 012°04'4 8.0
2017-Oct-18 06:30N 57°60' E 012°08'5 9.7
2017-Oct-18 05:58N 58°05' E 012°09'4 7.1
2017-Oct-18 05:27N 58°08' E 012°07'1 1.8
2017-Oct-18 05:00N 58°09' E 012°08'5 9.1
2017-Oct-18 04:30N 58°13' E 012°10'4 7.5
2017-Oct-18 04:00N 58°16' E 012°15'0 0.1
2017-Oct-18 03:30N 58°16' E 012°15'0 0.5
2017-Oct-18 03:00N 58°16' E 012°16'1 2.6
2017-Oct-18 02:30N 58°17' E 012°17'4 7.7
2017-Oct-18 02:00N 58°20' E 012°21'1 1.3
2017-Oct-18 01:30N 58°21' E 012°21'3 5.3
2017-Oct-18 01:00N 58°23' E 012°19'4 7.1
2017-Oct-18 00:30N 58°26' E 012°23'4 7.1
2017-Oct-18 00:00N 58°28' E 012°28'5 9.9
2017-Oct-17 23:30N 58°32' E 012°34'510.2
2017-Oct-17 23:00N 58°36' E 012°40'1 0.0
2017-Oct-15 21:04N 58°36' E 012°41'1 9.9
2017-Oct-15 21:00N 58°35' E 012°40'5 9.8
2017-Oct-15 20:30N 58°32' E 012°35'5 9.7
2017-Oct-15 20:00N 58°28' E 012°28'612.4
2017-Oct-15 19:30N 58°24' E 012°19'3 6.7
2017-Oct-15 19:00N 58°21' E 012°21'1 1.0
2017-Oct-15 18:30N 58°20' E 012°21'3 6.3
2017-Oct-15 18:00N 58°18' E 012°18'2 4.2
2017-Oct-15 17:30N 58°16' E 012°16'0 0.5
2017-Oct-15 17:00N 58°16' E 012°15'0 0.2
2017-Oct-15 16:30N 58°16' E 012°15'3 5.5
2017-Oct-15 16:00N 58°14' E 012°11'4 8.7
2017-Oct-15 15:30N 58°10' E 012°07'2 3.9
2017-Oct-15 14:58N 58°08' E 012°07'5 4.8
2017-Oct-15 13:58N 58°03' E 012°09'4 9.1
2017-Oct-15 13:30N 57°59' E 012°08'4 7.8
2017-Oct-15 13:00N 57°56' E 012°04'5 9.4
2017-Oct-15 12:30N 57°51' E 012°01'3 6.5
2017-Oct-15 12:00N 57°48' E 012°01'3 6.6
2017-Oct-15 11:30N 57°45' E 012°00'2 4.9
2017-Oct-15 11:00N 57°43' E 011°58'4 7.4
2017-Oct-15 10:30N 57°41' E 011°52'2 4.9
2017-Oct-15 10:00N 57°40' E 011°48'4 7.4
2017-Oct-15 09:30N 57°38' E 011°42'4 7.9
2017-Oct-15 09:00N 57°35' E 011°39'4 7.7
2017-Oct-15 08:30N 57°31' E 011°39'4 7.6
2017-Oct-15 08:00N 57°27' E 011°41'4 7.5
2017-Oct-15 07:30N 57°23' E 011°42'4 8.5
2017-Oct-15 07:00N 57°19' E 011°43'5 9.6
2017-Oct-15 06:30N 57°14' E 011°45'610.7
2017-Oct-15 05:59N 57°09' E 011°47'29 9.6
2017-Oct-15 02:55N 56°39' E 011°47'611.3
2017-Oct-15 02:21N 56°34' E 011°41'2411.2
2017-Oct-15 00:12N 56°13' E 011°20'60 9.2
2017-Oct-14 17:39N 55°15' E 010°52'1110.4
2017-Oct-14 16:35N 55°04' E 010°47'111.3
2017-Oct-14 16:30N 55°03' E 010°46'4 7.4
2017-Oct-14 16:00N 55°02' E 010°40'2 4.4
2017-Oct-14 15:30N 55°03' E 010°37'0 0.1
2017-Oct-14 15:00N 55°03' E 010°37'0 0.0
2017-Oct-14 14:30N 55°03' E 010°37'0 0.0
2017-Oct-14 14:00N 55°03' E 010°37'0 0.0
2017-Oct-14 13:30N 55°03' E 010°37'0 0.0
2017-Oct-14 13:00N 55°03' E 010°37'0 0.0
2017-Oct-14 12:30N 55°03' E 010°37'0 0.0
2017-Oct-14 12:00N 55°03' E 010°37'0 0.0
2017-Oct-14 11:30N 55°03' E 010°37'0 0.0
2017-Oct-14 11:00N 55°03' E 010°37'0 0.0
2017-Oct-14 10:30N 55°03' E 010°37'0 0.0
2017-Oct-14 10:00N 55°03' E 010°37'0 0.0
2017-Oct-14 09:30N 55°03' E 010°37'0 0.0
2017-Oct-14 09:00N 55°03' E 010°37'0 0.0
2017-Oct-14 08:30N 55°03' E 010°37'0 0.0
2017-Oct-14 08:00N 55°03' E 010°37'0 0.0
2017-Oct-14 07:30N 55°03' E 010°37'0 0.0
2017-Oct-14 07:00N 55°03' E 010°37'0 0.0
2017-Oct-14 06:30N 55°03' E 010°37'0 0.0
2017-Oct-14 06:00N 55°03' E 010°37'0 0.0
2017-Oct-14 05:30N 55°03' E 010°37'0 0.0
2017-Oct-14 05:00N 55°03' E 010°37'0 0.0
2017-Oct-14 04:30N 55°03' E 010°37'0 0.0
2017-Oct-14 04:00N 55°03' E 010°37'0 0.0
2017-Oct-14 03:30N 55°03' E 010°37'0 0.0
2017-Oct-14 03:00N 55°03' E 010°37'0 0.0
2017-Oct-14 02:30N 55°03' E 010°37'0 0.0
2017-Oct-14 02:00N 55°03' E 010°37'0 0.0
2017-Oct-14 01:30N 55°03' E 010°37'0 0.0
2017-Oct-14 01:00N 55°04' E 010°37'0 0.0
2017-Oct-14 00:30N 55°03' E 010°37'0 0.0
2017-Oct-14 00:00N 55°03' E 010°37'0 0.0
2017-Oct-13 23:30N 55°03' E 010°37'0 0.0
2017-Oct-13 23:00N 55°03' E 010°37'0 0.0
2017-Oct-13 22:30N 55°03' E 010°37'0 0.0
2017-Oct-13 22:00N 55°03' E 010°37'0 0.0
2017-Oct-13 21:30N 55°03' E 010°37'0 0.0
2017-Oct-13 21:00N 55°03' E 010°37'0 0.0
2017-Oct-13 20:30N 55°03' E 010°37'0 0.0
2017-Oct-13 20:00N 55°04' E 010°37'0 0.0
2017-Oct-13 19:30N 55°03' E 010°37'0 0.0
2017-Oct-13 19:00N 55°03' E 010°37'0 0.0
2017-Oct-13 18:30N 55°03' E 010°37'0 0.0
2017-Oct-13 18:00N 55°03' E 010°37'0 0.0
2017-Oct-13 17:30N 55°03' E 010°37'0 0.0
2017-Oct-13 17:00N 55°03' E 010°37'0 0.0
2017-Oct-13 16:30N 55°03' E 010°37'0 0.0
2017-Oct-13 16:00N 55°03' E 010°37'0 0.0
2017-Oct-13 15:30N 55°03' E 010°37'0 0.0
2017-Oct-13 15:00N 55°03' E 010°37'0 0.0
2017-Oct-13 14:30N 55°03' E 010°37'0 0.0
2017-Oct-13 14:00N 55°03' E 010°37'0 0.0
2017-Oct-13 13:30N 55°03' E 010°37'0 0.0
2017-Oct-13 13:00N 55°03' E 010°37'0 0.0
2017-Oct-13 12:30N 55°03' E 010°37'0 0.0
2017-Oct-13 12:00N 55°03' E 010°37'0 0.0
2017-Oct-13 11:30N 55°03' E 010°37'0 0.0
2017-Oct-13 11:00N 55°03' E 010°37'0 0.0
2017-Oct-13 10:30N 55°03' E 010°37'0 0.0
2017-Oct-13 10:00N 55°03' E 010°37'0 0.0
2017-Oct-13 09:30N 55°03' E 010°37'0 0.0
2017-Oct-13 09:00N 55°03' E 010°37'0 0.0
2017-Oct-13 08:30N 55°03' E 010°37'0 0.0
2017-Oct-13 08:00N 55°03' E 010°37'0 0.0
2017-Oct-13 07:30N 55°03' E 010°37'0 0.0
2017-Oct-13 07:00N 55°03' E 010°37'0 0.0
2017-Oct-13 06:30N 55°03' E 010°37'0 0.0
2017-Oct-13 06:00N 55°03' E 010°37'0 0.0
2017-Oct-13 05:30N 55°03' E 010°37'0 0.0
2017-Oct-13 05:00N 55°03' E 010°37'0 0.0
2017-Oct-13 04:30N 55°03' E 010°37'0 0.0
2017-Oct-13 04:00N 55°03' E 010°37'0 0.0
2017-Oct-13 03:30N 55°03' E 010°37'0 0.0
2017-Oct-13 03:00N 55°03' E 010°37'0 0.0
2017-Oct-13 02:30N 55°03' E 010°37'0 0.0
2017-Oct-13 02:00N 55°03' E 010°37'0 0.0
2017-Oct-13 01:30N 55°03' E 010°37'0 0.0
2017-Oct-13 01:00N 55°03' E 010°37'0 0.0
2017-Oct-13 00:30N 55°03' E 010°37'0 0.0
2017-Oct-13 00:00N 55°03' E 010°37'0 0.0
2017-Oct-12 23:30N 55°03' E 010°37'0 0.0
2017-Oct-12 23:00N 55°03' E 010°37'0 0.0
2017-Oct-12 22:30N 55°03' E 010°37'0 0.0
2017-Oct-12 22:00N 55°03' E 010°37'0 0.0
2017-Oct-12 21:30N 55°03' E 010°37'0 0.0
2017-Oct-12 21:00N 55°03' E 010°37'0 0.0
2017-Oct-12 20:30N 55°03' E 010°37'0 0.0
2017-Oct-12 20:00N 55°03' E 010°37'0 0.0
2017-Oct-12 19:30N 55°03' E 010°37'0 0.0
2017-Oct-12 19:00N 55°03' E 010°37'0 0.0
2017-Oct-12 18:30N 55°03' E 010°37'0 0.0
2017-Oct-12 18:00N 55°03' E 010°37'0 0.0
2017-Oct-12 17:30N 55°03' E 010°37'0 0.0
2017-Oct-12 17:00N 55°03' E 010°37'0 0.0
2017-Oct-12 16:30N 55°03' E 010°37'0 0.0
2017-Oct-12 16:00N 55°03' E 010°37'0 0.0
2017-Oct-12 15:30N 55°03' E 010°37'0 0.0
2017-Oct-12 15:00N 55°03' E 010°37'0 0.0
2017-Oct-12 14:30N 55°03' E 010°37'0 0.0
2017-Oct-12 14:00N 55°03' E 010°37'0 0.0
2017-Oct-12 13:30N 55°03' E 010°37'0 0.0
2017-Oct-12 13:00N 55°03' E 010°37'0 0.0
2017-Oct-12 12:30N 55°03' E 010°37'0 0.0
2017-Oct-12 12:00N 55°03' E 010°37'0 0.0
2017-Oct-12 11:31N 55°03' E 010°37'0 0.0
2017-Oct-12 11:00N 55°03' E 010°37'0 0.0
2017-Oct-12 10:30N 55°03' E 010°37'0 0.0
2017-Oct-12 10:00N 55°03' E 010°37'0 0.0
2017-Oct-12 09:30N 55°03' E 010°37'0 0.0
2017-Oct-12 09:00N 55°03' E 010°37'0 0.0
2017-Oct-12 08:30N 55°03' E 010°37'0 0.0
2017-Oct-12 08:00N 55°03' E 010°37'0 0.0
2017-Oct-12 07:30N 55°03' E 010°37'0 0.0
2017-Oct-12 07:00N 55°03' E 010°37'0 0.0
2017-Oct-12 06:30N 55°03' E 010°37'0 0.0
2017-Oct-12 06:00N 55°03' E 010°37'0 0.0
2017-Oct-12 05:30N 55°03' E 010°37'0 0.0
2017-Oct-12 05:00N 55°03' E 010°37'0 0.0
2017-Oct-12 04:30N 55°03' E 010°37'0 0.0
2017-Oct-12 04:00N 55°03' E 010°37'0 0.0
2017-Oct-12 03:30N 55°03' E 010°37'0 0.0
2017-Oct-12 03:00N 55°03' E 010°37'0 0.0
2017-Oct-12 02:30N 55°03' E 010°37'0 0.0
2017-Oct-12 02:00N 55°03' E 010°37'0 0.0
2017-Oct-12 01:30N 55°03' E 010°37'0 0.0
2017-Oct-12 01:00N 55°03' E 010°37'0 0.0
2017-Oct-12 00:30N 55°03' E 010°37'0 0.0
2017-Oct-12 00:00N 55°03' E 010°37'0 0.0
2017-Oct-11 23:30N 55°03' E 010°37'0 0.0
2017-Oct-11 23:00N 55°03' E 010°37'0 0.0
2017-Oct-11 22:30N 55°03' E 010°37'0 0.0
2017-Oct-11 22:00N 55°03' E 010°37'0 0.0
2017-Oct-11 21:30N 55°03' E 010°37'  
Track history (hours):
 
Tides and Currents Weather Stations Pressure Air Temp Water Temp Dewpoint Dewpoint Depression Visibility Wind Speed Wind Dir Waves Ship Positions

Birthe Bres

Last reported at 2017-Oct-21 21:29 UTC. Time now 2017-Oct-22 13:26 UTC.
Position N 50°30' W 000°21'.

Length 88 m; draft 5.2 m.

Type: Cargo ship. MMSI: 220506000.

Date/timePositionNaut miles runAvg speedWind from/ knotsBaromVisibWave heightAir tempDewpointWater temp
2017-Oct-21 21:29N 50°30' W 000°21'0 0.9
2017-Oct-21 20:56N 50°30' W 000°20'0 0.8
2017-Oct-21 20:30N 50°30' W 000°20'1 1.1
2017-Oct-21 20:00N 50°30' W 000°19'1 1.7
2017-Oct-21 19:30N 50°30' W 000°18'1 2.4
2017-Oct-21 19:00N 50°30' W 000°16'1 2.7
2017-Oct-21 18:29N 50°30' W 000°14'2 3.1
2017-Oct-21 18:00N 50°30' W 000°11'2 3.9
2017-Oct-21 17:30N 50°31' W 000°09'2 4.5
2017-Oct-21 17:00N 50°32' W 000°05'2 4.6
2017-Oct-21 16:30N 50°32' W 000°02'2 4.9
2017-Oct-21 16:00N 50°33' E 000°02'2 4.7
2017-Oct-21 15:30N 50°34' E 000°05'3 5.2
2017-Oct-21 15:00N 50°34' E 000°09'2 4.6
2017-Oct-21 14:30N 50°35' E 000°13'5 4.7
2017-Oct-21 13:29N 50°36' E 000°20'2 4.3
2017-Oct-21 13:00N 50°37' E 000°23'2 4.0
2017-Oct-21 12:30N 50°37' E 000°26'2 3.3
2017-Oct-21 12:00N 50°38' E 000°29'2 2.7
2017-Oct-21 11:06N 50°39' E 000°33'0 2.5
2017-Oct-21 11:00N 50°39' E 000°33'1 2.3
2017-Oct-21 10:30N 50°39' E 000°35'1 2.1
2017-Oct-21 10:00N 50°40' E 000°36'1 1.4
2017-Oct-21 09:30N 50°40' E 000°37'1 1.5
2017-Oct-21 09:00N 50°40' E 000°38'1 2.0
2017-Oct-21 08:30N 50°41' E 000°39'1 2.5
2017-Oct-21 08:00N 50°41' E 000°41'1 2.9
2017-Oct-21 07:30N 50°42' E 000°43'2 4.4
2017-Oct-21 07:00N 50°44' E 000°46'3 5.5
2017-Oct-21 06:30N 50°45' E 000°49'3 6.5
2017-Oct-21 06:00N 50°47' E 000°54'4 7.2
2017-Oct-21 05:28N 50°49' E 000°58'13 7.4
2017-Oct-21 03:45N 50°58' E 001°14'2 7.2
2017-Oct-21 03:30N 50°59' E 001°16'4 7.1
2017-Oct-21 03:00N 51°01' E 001°21'4 6.8
2017-Oct-21 02:29N 51°03' E 001°25'3 6.4
2017-Oct-21 02:00N 51°05' E 001°29'3 6.0
2017-Oct-21 01:30N 51°07' E 001°32'3 5.5
2017-Oct-21 01:00N 51°09' E 001°35'3 5.9
2017-Oct-21 00:30N 51°11' E 001°39'3 6.5
2017-Oct-21 00:00N 51°13' E 001°43'3 6.8
2017-Oct-20 23:30N 51°15' E 001°47'4 7.5
2017-Oct-20 23:00N 51°18' E 001°50'5 9.0
2017-Oct-20 22:30N 51°22' E 001°54'510.3
2017-Oct-20 22:00N 51°26' E 001°59'611.1
2017-Oct-20 21:30N 51°31' E 002°05'611.4
2017-Oct-20 21:00N 51°35' E 002°10'611.3
2017-Oct-20 20:30N 51°39' E 002°17'51 5.1
2017-Oct-20 10:31N 52°19' E 003°08'1 4.9
2017-Oct-20 10:24N 52°19' E 003°09'2 5.4
2017-Oct-20 09:59N 52°21' E 003°11'3 5.4
2017-Oct-20 09:29N 52°23' E 003°14'2 4.7
2017-Oct-20 08:59N 52°25' E 003°16'3 6.2
2017-Oct-20 08:29N 52°28' E 003°19'3 6.2
2017-Oct-20 07:58N 52°30' E 003°22'3 6.8
2017-Oct-20 07:30N 52°33' E 003°25'4 6.9
2017-Oct-20 06:59N 52°35' E 003°29'4 8.5
2017-Oct-20 06:28N 52°39' E 003°34'4 8.3
2017-Oct-20 06:00N 52°42' E 003°38'4 8.1
2017-Oct-20 05:30N 52°45' E 003°42'33910.2
2017-Oct-18 20:23N 57°25' E 009°16'2610.6
2017-Oct-18 17:53N 57°39' E 009°58'410.6
2017-Oct-18 17:30N 57°40' E 010°05'510.9
2017-Oct-18 17:00N 57°42' E 010°14'610.8
2017-Oct-18 16:29N 57°44' E 010°23'510.1
2017-Oct-18 16:00N 57°46' E 010°32'510.2
2017-Oct-18 15:30N 57°48' E 010°41'5 9.8
2017-Oct-18 15:00N 57°48' E 010°50'1010.4
2017-Oct-18 14:00N 57°43' E 011°08'510.6
2017-Oct-18 13:30N 57°41' E 011°17'510.7
2017-Oct-18 13:00N 57°39' E 011°26'611.0
2017-Oct-18 12:30N 57°37' E 011°36'5 9.7
2017-Oct-18 12:00N 57°39' E 011°44'2 4.1
2017-Oct-18 11:30N 57°40' E 011°47'0 0.0
2017-Oct-18 11:00N 57°40' E 011°47'0 0.0
2017-Oct-18 10:27N 57°40' E 011°47'0 0.3
2017-Oct-18 10:00N 57°40' E 011°47'3 7.2
2017-Oct-18 09:30N 57°41' E 011°53'4 7.4
2017-Oct-18 09:00N 57°43' E 011°59'2 3.4
2017-Oct-18 08:30N 57°45' E 012°00'3 6.2
2017-Oct-18 08:00N 57°48' E 012°01'3 6.8
2017-Oct-18 07:30N 57°51' E 012°01'5 9.8
2017-Oct-18 07:00N 57°56' E 012°04'4 8.0
2017-Oct-18 06:30N 57°60' E 012°08'5 9.7
2017-Oct-18 05:58N 58°05' E 012°09'4 7.1
2017-Oct-18 05:27N 58°08' E 012°07'1 1.8
2017-Oct-18 05:00N 58°09' E 012°08'5 9.1
2017-Oct-18 04:30N 58°13' E 012°10'4 7.5
2017-Oct-18 04:00N 58°16' E 012°15'0 0.1
2017-Oct-18 03:30N 58°16' E 012°15'0 0.5
2017-Oct-18 03:00N 58°16' E 012°16'1 2.6
2017-Oct-18 02:30N 58°17' E 012°17'4 7.7
2017-Oct-18 02:00N 58°20' E 012°21'1 1.3
2017-Oct-18 01:30N 58°21' E 012°21'3 5.3
2017-Oct-18 01:00N 58°23' E 012°19'4 7.1
2017-Oct-18 00:30N 58°26' E 012°23'4 7.1
2017-Oct-18 00:00N 58°28' E 012°28'5 9.9
2017-Oct-17 23:30N 58°32' E 012°34'510.2
2017-Oct-17 23:00N 58°36' E 012°40'1 0.0
2017-Oct-15 21:04N 58°36' E 012°41'1 9.9
2017-Oct-15 21:00N 58°35' E 012°40'5 9.8
2017-Oct-15 20:30N 58°32' E 012°35'5 9.7
2017-Oct-15 20:00N 58°28' E 012°28'612.4
2017-Oct-15 19:30N 58°24' E 012°19'3 6.7
2017-Oct-15 19:00N 58°21' E 012°21'1 1.0
2017-Oct-15 18:30N 58°20' E 012°21'3 6.3
2017-Oct-15 18:00N 58°18' E 012°18'2 4.2
2017-Oct-15 17:30N 58°16' E 012°16'0 0.5
2017-Oct-15 17:00N 58°16' E 012°15'0 0.2
2017-Oct-15 16:30N 58°16' E 012°15'3 5.5
2017-Oct-15 16:00N 58°14' E 012°11'4 8.7
2017-Oct-15 15:30N 58°10' E 012°07'2 3.9
2017-Oct-15 14:58N 58°08' E 012°07'5 4.8
2017-Oct-15 13:58N 58°03' E 012°09'4 9.1
2017-Oct-15 13:30N 57°59' E 012°08'4 7.8
2017-Oct-15 13:00N 57°56' E 012°04'5 9.4
2017-Oct-15 12:30N 57°51' E 012°01'3 6.5
2017-Oct-15 12:00N 57°48' E 012°01'3 6.6
2017-Oct-15 11:30N 57°45' E 012°00'2 4.9
2017-Oct-15 11:00N 57°43' E 011°58'4 7.4
2017-Oct-15 10:30N 57°41' E 011°52'2 4.9
2017-Oct-15 10:00N 57°40' E 011°48'4 7.4
2017-Oct-15 09:30N 57°38' E 011°42'4 7.9
2017-Oct-15 09:00N 57°35' E 011°39'4 7.7
2017-Oct-15 08:30N 57°31' E 011°39'4 7.6
2017-Oct-15 08:00N 57°27' E 011°41'4 7.5
2017-Oct-15 07:30N 57°23' E 011°42'4 8.5
2017-Oct-15 07:00N 57°19' E 011°43'5 9.6
2017-Oct-15 06:30N 57°14' E 011°45'610.7
2017-Oct-15 05:59N 57°09' E 011°47'29 9.6
2017-Oct-15 02:55N 56°39' E 011°47'611.3
2017-Oct-15 02:21N 56°34' E 011°41'2411.2
2017-Oct-15 00:12N 56°13' E 011°20'60 9.2
2017-Oct-14 17:39N 55°15' E 010°52'1110.4
2017-Oct-14 16:35N 55°04' E 010°47'111.3
2017-Oct-14 16:30N 55°03' E 010°46'4 7.4
2017-Oct-14 16:00N 55°02' E 010°40'2 4.4
2017-Oct-14 15:30N 55°03' E 010°37'0 0.1
2017-Oct-14 15:00N 55°03' E 010°37'0 0.0
2017-Oct-14 14:30N 55°03' E 010°37'0 0.0
2017-Oct-14 14:00N 55°03' E 010°37'0 0.0
2017-Oct-14 13:30N 55°03' E 010°37'0 0.0
2017-Oct-14 13:00N 55°03' E 010°37'0 0.0
2017-Oct-14 12:30N 55°03' E 010°37'0 0.0
2017-Oct-14 12:00N 55°03' E 010°37'0 0.0
2017-Oct-14 11:30N 55°03' E 010°37'0 0.0
2017-Oct-14 11:00N 55°03' E 010°37'0 0.0
2017-Oct-14 10:30N 55°03' E 010°37'0 0.0
2017-Oct-14 10:00N 55°03' E 010°37'0 0.0
2017-Oct-14 09:30N 55°03' E 010°37'0 0.0
2017-Oct-14 09:00N 55°03' E 010°37'0 0.0
2017-Oct-14 08:30N 55°03' E 010°37'0 0.0
2017-Oct-14 08:00N 55°03' E 010°37'0 0.0
2017-Oct-14 07:30N 55°03' E 010°37'0 0.0
2017-Oct-14 07:00N 55°03' E 010°37'0 0.0
2017-Oct-14 06:30N 55°03' E 010°37'0 0.0
2017-Oct-14 06:00N 55°03' E 010°37'0 0.0
2017-Oct-14 05:30N 55°03' E 010°37'0 0.0
2017-Oct-14 05:00N 55°03' E 010°37'0 0.0
2017-Oct-14 04:30N 55°03' E 010°37'0 0.0
2017-Oct-14 04:00N 55°03' E 010°37'0 0.0
2017-Oct-14 03:30N 55°03' E 010°37'0 0.0
2017-Oct-14 03:00N 55°03' E 010°37'0 0.0
2017-Oct-14 02:30N 55°03' E 010°37'0 0.0
2017-Oct-14 02:00N 55°03' E 010°37'0 0.0
2017-Oct-14 01:30N 55°03' E 010°37'0 0.0
2017-Oct-14 01:00N 55°04' E 010°37'0 0.0
2017-Oct-14 00:30N 55°03' E 010°37'0 0.0
2017-Oct-14 00:00N 55°03' E 010°37'0 0.0
2017-Oct-13 23:30N 55°03' E 010°37'0 0.0
2017-Oct-13 23:00N 55°03' E 010°37'0 0.0
2017-Oct-13 22:30N 55°03' E 010°37'0 0.0
2017-Oct-13 22:00N 55°03' E 010°37'0 0.0
2017-Oct-13 21:30N 55°03' E 010°37'0 0.0
2017-Oct-13 21:00N 55°03' E 010°37'0 0.0
2017-Oct-13 20:30N 55°03' E 010°37'0 0.0
2017-Oct-13 20:00N 55°04' E 010°37'0 0.0
2017-Oct-13 19:30N 55°03' E 010°37'0 0.0
2017-Oct-13 19:00N 55°03' E 010°37'0 0.0
2017-Oct-13 18:30N 55°03' E 010°37'0 0.0
2017-Oct-13 18:00N 55°03' E 010°37'0 0.0
2017-Oct-13 17:30N 55°03' E 010°37'0 0.0
2017-Oct-13 17:00N 55°03' E 010°37'0 0.0
2017-Oct-13 16:30N 55°03' E 010°37'0 0.0
2017-Oct-13 16:00N 55°03' E 010°37'0 0.0
2017-Oct-13 15:30N 55°03' E 010°37'0 0.0
2017-Oct-13 15:00N 55°03' E 010°37'0 0.0
2017-Oct-13 14:30N 55°03' E 010°37'0 0.0
2017-Oct-13 14:00N 55°03' E 010°37'0 0.0
2017-Oct-13 13:30N 55°03' E 010°37'0 0.0
2017-Oct-13 13:00N 55°03' E 010°37'0 0.0
2017-Oct-13 12:30N 55°03' E 010°37'0 0.0
2017-Oct-13 12:00N 55°03' E 010°37'0 0.0
2017-Oct-13 11:30N 55°03' E 010°37'0 0.0
2017-Oct-13 11:00N 55°03' E 010°37'0 0.0
2017-Oct-13 10:30N 55°03' E 010°37'0 0.0
2017-Oct-13 10:00N 55°03' E 010°37'0 0.0
2017-Oct-13 09:30N 55°03' E 010°37'0 0.0
2017-Oct-13 09:00N 55°03' E 010°37'0 0.0
2017-Oct-13 08:30N 55°03' E 010°37'0 0.0
2017-Oct-13 08:00N 55°03' E 010°37'0 0.0
2017-Oct-13 07:30N 55°03' E 010°37'0 0.0
2017-Oct-13 07:00N 55°03' E 010°37'0 0.0
2017-Oct-13 06:30N 55°03' E 010°37'0 0.0
2017-Oct-13 06:00N 55°03' E 010°37'0 0.0
2017-Oct-13 05:30N 55°03' E 010°37'0 0.0
2017-Oct-13 05:00N 55°03' E 010°37'0 0.0
2017-Oct-13 04:30N 55°03' E 010°37'0 0.0
2017-Oct-13 04:00N 55°03' E 010°37'0 0.0
2017-Oct-13 03:30N 55°03' E 010°37'0 0.0
2017-Oct-13 03:00N 55°03' E 010°37'0 0.0
2017-Oct-13 02:30N 55°03' E 010°37'0 0.0
2017-Oct-13 02:00N 55°03' E 010°37'0 0.0
2017-Oct-13 01:30N 55°03' E 010°37'0 0.0
2017-Oct-13 01:00N 55°03' E 010°37'0 0.0
2017-Oct-13 00:30N 55°03' E 010°37'0 0.0
2017-Oct-13 00:00N 55°03' E 010°37'0 0.0
2017-Oct-12 23:30N 55°03' E 010°37'0 0.0
2017-Oct-12 23:00N 55°03' E 010°37'0 0.0
2017-Oct-12 22:30N 55°03' E 010°37'0 0.0
2017-Oct-12 22:00N 55°03' E 010°37'0 0.0
2017-Oct-12 21:30N 55°03' E 010°37'0 0.0
2017-Oct-12 21:00N 55°03' E 010°37'0 0.0
2017-Oct-12 20:30N 55°03' E 010°37'0 0.0
2017-Oct-12 20:00N 55°03' E 010°37'0 0.0
2017-Oct-12 19:30N 55°03' E 010°37'0 0.0
2017-Oct-12 19:00N 55°03' E 010°37'0 0.0
2017-Oct-12 18:30N 55°03' E 010°37'0 0.0
2017-Oct-12 18:00N 55°03' E 010°37'0 0.0
2017-Oct-12 17:30N 55°03' E 010°37'0 0.0
2017-Oct-12 17:00N 55°03' E 010°37'0 0.0
2017-Oct-12 16:30N 55°03' E 010°37'0 0.0
2017-Oct-12 16:00N 55°03' E 010°37'0 0.0
2017-Oct-12 15:30N 55°03' E 010°37'0 0.0
2017-Oct-12 15:00N 55°03' E 010°37'0 0.0
2017-Oct-12 14:30N 55°03' E 010°37'0 0.0
2017-Oct-12 14:00N 55°03' E 010°37'0 0.0
2017-Oct-12 13:30N 55°03' E 010°37'0 0.0
2017-Oct-12 13:00N 55°03' E 010°37'0 0.0
2017-Oct-12 12:30N 55°03' E 010°37'0 0.0
2017-Oct-12 12:00N 55°03' E 010°37'0 0.0
2017-Oct-12 11:31N 55°03' E 010°37'0 0.0
2017-Oct-12 11:00N 55°03' E 010°37'0 0.0
2017-Oct-12 10:30N 55°03' E 010°37'0 0.0
2017-Oct-12 10:00N 55°03' E 010°37'0 0.0
2017-Oct-12 09:30N 55°03' E 010°37'0 0.0
2017-Oct-12 09:00N 55°03' E 010°37'0 0.0
2017-Oct-12 08:30N 55°03' E 010°37'0 0.0
2017-Oct-12 08:00N 55°03' E 010°37'0 0.0
2017-Oct-12 07:30N 55°03' E 010°37'0 0.0
2017-Oct-12 07:00N 55°03' E 010°37'0 0.0
2017-Oct-12 06:30N 55°03' E 010°37'0 0.0
2017-Oct-12 06:00N 55°03' E 010°37'0 0.0
2017-Oct-12 05:30N 55°03' E 010°37'0 0.0
2017-Oct-12 05:00N 55°03' E 010°37'0 0.0
2017-Oct-12 04:30N 55°03' E 010°37'0 0.0
2017-Oct-12 04:00N 55°03' E 010°37'0 0.0
2017-Oct-12 03:30N 55°03' E 010°37'0 0.0
2017-Oct-12 03:00N 55°03' E 010°37'0 0.0
2017-Oct-12 02:30N 55°03' E 010°37'0 0.0
2017-Oct-12 02:00N 55°03' E 010°37'0 0.0
2017-Oct-12 01:30N 55°03' E 010°37'0 0.0
2017-Oct-12 01:00N 55°03' E 010°37'0 0.0
2017-Oct-12 00:30N 55°03' E 010°37'0 0.0
2017-Oct-12 00:00N 55°03' E 010°37'0 0.0
2017-Oct-11 23:30N 55°03' E 010°37'0 0.0
2017-Oct-11 23:00N 55°03' E 010°37'0 0.0
2017-Oct-11 22:30N 55°03' E 010°37'0 0.0
2017-Oct-11 22:00N 55°03' E 010°37'0 0.0
2017-Oct-11 21:30N 55°03' E 010°37'  

Dump ship's entire track history